Date,TemperatureHighF,TemperatureAvgF,TemperatureLowF,DewpointHighF,DewpointAvgF,DewpointLowF,HumidityHigh,HumidityAvg,HumidityLow,PressureMaxIn,PressureMinIn,WindSpeedMaxMPH,WindSpeedAvgMPH,GustSpeedMaxMPH,PrecipitationSumIn
2013-3-1,41.4,37.3,33.0,34.1,31.9,28.0,90,81,73,30.01,29.96,2,0,5,0.00
2013-3-2,40.9,35.6,32.6,34.8,31.8,26.5,98,86,68,30.05,29.94,2,0,10,0.00
2013-3-3,44.7,33.6,27.4,29.1,24.8,21.1,89,71,50,30.12,30.00,3,1,11,0.00
2013-3-4,62.5,40.7,23.7,37.9,28.9,21.4,95,67,32,30.21,30.04,1,0,2,0.00
2013-3-5,64.7,47.8,36.9,57.5,44.1,31.6,100,87,75,30.07,29.65,4,0,6,0.21
2013-3-6,37.0,35.8,34.1,32.0,31.2,30.4,86,83,81,30.21,29.88,1,0,4,0.00
2013-3-7,63.0,41.3,29.0,43.1,33.7,27.9,98,77,46,30.28,30.18,1,0,4,0.00
2013-3-8,66.3,43.0,25.8,40.4,32.1,25.3,100,71,34,30.35,30.20,1,0,4,0.00
2013-3-9,60.2,37.7,31.4,36.5,31.3,28.8,97,80,40,30.35,30.24,2,0,2,0.00
2013-3-10,69.6,61.9,55.3,48.2,43.9,40.1,77,53,37,30.11,30.08,2,0,7,0.00
2013-3-11,62.0,55.4,50.8,57.4,52.9,48.1,100,92,76,30.08,29.81,3,0,13,1.23
2013-3-12,59.0,47.1,37.1,50.5,41.5,36.0,100,83,56,30.12,29.82,2,0,7,0.00
2013-3-13,56.4,41.5,29.8,38.2,32.0,24.2,100,72,41,30.27,30.09,4,1,9,0.00
2013-3-14,35.8,30.6,26.8,25.7,22.7,21.2,84,73,62,30.39,30.26,1,0,6,0.00
2013-3-15,76.2,65.7,54.3,51.7,48.9,46.4,76,56,40,30.06,29.98,1,0,2,0.00
2013-3-16,78.8,59.1,44.3,54.9,47.7,42.4,96,70,39,30.00,29.86,1,0,4,0.00
2013-3-17,71.8,65.0,53.6,58.5,53.8,49.9,88,68,57,29.95,29.89,1,0,3,0.00
2013-3-18,57.8,49.0,44.9,57.4,48.2,44.9,100,97,88,30.01,29.84,1,0,3,0.41
2013-3-19,65.3,50.9,39.9,46.5,41.2,30.0,100,74,41,30.10,29.91,1,0,7,0.00
2013-3-20,61.3,45.0,33.4,36.0,31.4,24.7,97,64,30,30.15,29.91,2,0,6,0.00
2013-3-21,49.3,38.1,29.0,33.1,23.5,16.7,79,57,35,30.00,29.89,3,0,7,0.00
2013-3-22,52.9,41.6,29.6,39.4,32.0,23.8,86,69,53,30.07,29.98,1,0,4,0.00
2013-3-23,52.7,46.5,41.0,52.3,45.3,37.6,100,96,71,30.03,29.82,1,0,2,0.72
2013-3-24,49.2,46.9,39.8,48.9,46.7,37.1,100,99,89,29.82,29.54,2,0,3,0.75
2013-3-25,42.5,37.1,32.9,37.3,30.7,27.8,92,78,65,30.08,29.69,2,0,5,0.00
2013-3-26,41.8,35.4,30.4,33.5,29.9,27.7,94,80,65,30.31,30.05,3,0,5,0.00
2013-3-27,57.3,39.8,26.3,37.9,30.1,25.3,97,71,44,30.36,30.26,2,0,9,0.00
2013-3-28,63.6,43.0,26.2,38.6,32.6,25.7,99,72,36,30.37,30.24,2,0,5,0.00
2013-3-29,69.4,48.3,30.3,45.6,36.6,29.8,100,69,36,30.36,30.19,1,0,2,0.00
2013-3-30,73.0,57.3,43.4,58.3,47.3,39.8,100,72,44,30.20,30.02,2,0,3,0.39
2013-3-31,63.1,57.8,54.3,63.0,57.5,54.3,100,99,90,30.02,29.86,1,0,3,0.38